Terminal Aerodrome Forecast
Issued by NWS

Home | Current Version | Previous Version | Graphics & Text | Print | Product List | Glossary Off
Versions: 1 2 3 4 5 6 7 8 9 10 11 12 13 14 15 16 17

310
FTUS42 KMHX 292332
TAFISO
TAF
KISO 292332Z 3000/3024 05004KT P6SM SCT040
     FM301000 06006KT P6SM FEW030 SCT050
     FM302000 10009KT P6SM SCT030 BKN050
      AMD LTD TO CLD VIS AND WIND=

USA.gov is the U.S. government's official web portal to all federal, state and local government web resources and services.